Time;durP1;ratioP1;P1;durP2;ratioP2;P2;SDS_P1;SDS_P2;PMS_P1;PMS_P2;Temp;Humidity;BMP_temperature;BMP_pressure;BME280_temperature;BME280_humidity;BME280_pressure;Samples;Min_cycle;Max_cycle;Signal;HPM_P1;HPM_P2
2024/03/15 00:00:02;;;;;;;1.73;1.38;;;;;;;;;;5046167;28;20106;-61
2024/03/15 00:02:31;;;;;;;2.08;1.38;;;;;;;;;;5049471;28;20045;-60
2024/03/15 00:04:59;;;;;;;2.20;1.20;;;;;;;;;;5057726;28;20053;-61
2024/03/15 00:07:28;;;;;;;1.55;1.08;;;;;;;;;;5043279;28;20265;-61
2024/03/15 00:09:56;;;;;;;1.42;1.33;;;;;;;;;;5044999;28;20110;-61
2024/03/15 00:12:25;;;;;;;1.77;1.40;;;;;;;;;;5050497;28;20044;-60
2024/03/15 00:14:55;;;;;;;1.98;1.20;;;;;;;;;;5054492;28;20054;-60
2024/03/15 00:17:23;;;;;;;2.85;1.40;;;;;;;;;;5043375;28;20177;-60
2024/03/15 00:19:52;;;;;;;2.47;1.23;;;;;;;;;;5049626;28;20050;-61
2024/03/15 00:22:21;;;;;;;1.80;1.65;;;;;;;;;;5048309;28;20075;-61
2024/03/15 00:24:50;;;;;;;2.83;1.33;;;;;;;;;;5054474;28;20130;-60
2024/03/15 00:27:18;;;;;;;1.70;1.40;;;;;;;;;;5051507;28;20045;-60
2024/03/15 00:29:47;;;;;;;2.78;1.70;;;;;;;;;;5041908;28;20418;-62
2024/03/15 00:32:15;;;;;;;3.63;1.70;;;;;;;;;;5047315;28;20151;-62
2024/03/15 00:34:44;;;;;;;1.83;1.50;;;;;;;;;;5068067;28;20052;-60
2024/03/15 00:37:12;;;;;;;2.42;1.42;;;;;;;;;;5059533;28;20425;-60
2024/03/15 00:39:40;;;;;;;2.92;1.70;;;;;;;;;;5059748;28;20138;-60
2024/03/15 00:42:09;;;;;;;1.83;1.35;;;;;;;;;;5072094;28;20055;-61
2024/03/15 00:44:37;;;;;;;2.65;1.30;;;;;;;;;;5076877;28;20136;-61
2024/03/15 00:47:06;;;;;;;4.90;1.33;;;;;;;;;;5069153;28;20056;-61
2024/03/15 00:49:34;;;;;;;2.03;1.40;;;;;;;;;;5071007;28;20045;-61
2024/03/15 00:52:03;;;;;;;3.67;1.30;;;;;;;;;;5074457;28;20083;-60
2024/03/15 00:54:31;;;;;;;2.15;1.42;;;;;;;;;;5060426;28;20071;-59
2024/03/15 00:57:01;;;;;;;2.00;1.30;;;;;;;;;;5074364;28;20052;-61
2024/03/15 00:59:30;;;;;;;4.55;1.98;;;;;;;;;;5067815;28;20044;-60
2024/03/15 01:01:59;;;;;;;1.58;1.23;;;;;;;;;;5072924;28;20083;-60
2024/03/15 01:04:28;;;;;;;1.30;1.20;;;;;;;;;;5075543;28;20036;-60
2024/03/15 01:06:56;;;;;;;1.48;1.23;;;;;;;;;;5083327;28;20072;-60
2024/03/15 01:09:25;;;;;;;1.75;1.27;;;;;;;;;;5066775;28;20049;-60
2024/03/15 01:11:54;;;;;;;1.63;1.20;;;;;;;;;;5074387;28;20163;-61
2024/03/15 01:14:22;;;;;;;1.73;1.40;;;;;;;;;;5071241;28;20098;-61
2024/03/15 01:16:51;;;;;;;1.80;1.30;;;;;;;;;;5060196;28;20052;-60
2024/03/15 01:19:19;;;;;;;1.23;1.08;;;;;;;;;;5071825;28;20089;-60
2024/03/15 01:21:48;;;;;;;2.10;1.40;;;;;;;;;;5069867;28;20051;-61
2024/03/15 01:24:16;;;;;;;1.63;1.30;;;;;;;;;;5065270;28;20101;-61
2024/03/15 01:26:45;;;;;;;1.20;1.10;;;;;;;;;;5079321;28;20286;-63
2024/03/15 01:29:14;;;;;;;1.20;1.10;;;;;;;;;;5076605;28;20052;-61
2024/03/15 01:31:42;;;;;;;1.40;1.30;;;;;;;;;;5071688;28;20051;-61
2024/03/15 01:34:14;;;;;;;1.55;1.20;;;;;;;;;;5069704;28;20048;-61
2024/03/15 01:36:42;;;;;;;1.85;1.10;;;;;;;;;;5066376;28;20058;-61
2024/03/15 01:39:11;;;;;;;1.88;1.17;;;;;;;;;;5073108;28;20050;-61
2024/03/15 01:41:39;;;;;;;0.90;0.90;;;;;;;;;;5075359;28;20049;-60
2024/03/15 01:44:08;;;;;;;2.35;1.30;;;;;;;;;;5073957;28;20040;-60
2024/03/15 01:46:36;;;;;;;3.72;1.30;;;;;;;;;;5067788;28;20087;-61
2024/03/15 01:49:06;;;;;;;1.80;1.15;;;;;;;;;;5077362;28;20044;-61
2024/03/15 01:51:34;;;;;;;2.28;1.35;;;;;;;;;;5072082;28;20051;-61
2024/03/15 01:54:03;;;;;;;2.78;1.52;;;;;;;;;;5068882;28;20040;-60
2024/03/15 01:56:31;;;;;;;0.90;0.90;;;;;;;;;;5067321;28;20079;-60
2024/03/15 01:59:00;;;;;;;1.98;1.23;;;;;;;;;;5060229;28;20094;-60
2024/03/15 02:01:28;;;;;;;1.70;1.30;;;;;;;;;;5076726;28;20094;-60
2024/03/15 02:03:58;;;;;;;1.98;1.20;;;;;;;;;;5070068;28;20102;-61
2024/03/15 02:06:27;;;;;;;1.83;1.20;;;;;;;;;;5076073;28;20040;-60
2024/03/15 02:08:56;;;;;;;1.30;1.00;;;;;;;;;;5062723;28;20493;-60
2024/03/15 02:11:24;;;;;;;1.42;1.30;;;;;;;;;;5069831;28;20083;-61
2024/03/15 02:13:53;;;;;;;1.60;1.20;;;;;;;;;;5070321;28;20044;-61
2024/03/15 02:16:22;;;;;;;0.95;0.93;;;;;;;;;;5073751;28;20041;-61
2024/03/15 02:18:50;;;;;;;1.42;1.20;;;;;;;;;;5062073;28;20036;-64
2024/03/15 02:21:19;;;;;;;1.23;1.00;;;;;;;;;;5077465;28;20485;-60
2024/03/15 02:23:47;;;;;;;1.77;1.30;;;;;;;;;;5069530;28;20131;-60
2024/03/15 02:26:17;;;;;;;1.50;1.15;;;;;;;;;;5069668;28;20112;-60
2024/03/15 02:28:46;;;;;;;1.67;1.02;;;;;;;;;;5069200;28;20045;-60
2024/03/15 02:31:14;;;;;;;2.15;1.30;;;;;;;;;;5071130;28;20048;-60
2024/03/15 02:33:44;;;;;;;1.50;1.25;;;;;;;;;;5061816;28;20107;-61
2024/03/15 02:36:13;;;;;;;2.47;1.30;;;;;;;;;;5065929;28;20159;-61
2024/03/15 02:38:41;;;;;;;1.58;1.13;;;;;;;;;;5070011;28;20503;-61
2024/03/15 02:41:10;;;;;;;2.13;0.90;;;;;;;;;;5069010;28;20378;-61
2024/03/15 02:43:38;;;;;;;1.65;1.20;;;;;;;;;;5060368;28;20052;-60
2024/03/15 02:46:07;;;;;;;1.77;1.20;;;;;;;;;;5065531;28;20055;-62
2024/03/15 02:48:36;;;;;;;1.45;1.15;;;;;;;;;;5074963;28;20044;-61
2024/03/15 02:51:04;;;;;;;2.25;1.25;;;;;;;;;;5073645;28;20059;-60
2024/03/15 02:53:33;;;;;;;2.35;1.20;;;;;;;;;;5061396;28;20243;-62
2024/03/15 02:56:02;;;;;;;1.73;1.23;;;;;;;;;;5055905;28;20041;-62
2024/03/15 02:58:30;;;;;;;1.55;1.30;;;;;;;;;;5069696;28;20079;-62
2024/03/15 03:00:59;;;;;;;1.30;1.13;;;;;;;;;;5066307;28;20041;-62
2024/03/15 03:03:27;;;;;;;2.05;1.30;;;;;;;;;;5072672;28;20036;-61
2024/03/15 03:05:57;;;;;;;1.33;1.23;;;;;;;;;;5069265;28;20052;-61
2024/03/15 03:08:26;;;;;;;1.73;1.10;;;;;;;;;;5066996;28;20489;-59
2024/03/15 03:10:54;;;;;;;2.88;1.10;;;;;;;;;;5067374;28;20567;-61
2024/03/15 03:13:22;;;;;;;1.73;1.05;;;;;;;;;;5063170;28;20509;-60
2024/03/15 03:15:51;;;;;;;1.20;0.90;;;;;;;;;;5067540;28;20045;-61
2024/03/15 03:18:19;;;;;;;1.00;0.95;;;;;;;;;;5059186;28;20428;-60
2024/03/15 03:20:48;;;;;;;1.05;0.95;;;;;;;;;;5073184;28;20044;-60
2024/03/15 03:23:16;;;;;;;1.73;1.10;;;;;;;;;;5072871;28;20076;-60
2024/03/15 03:25:45;;;;;;;1.38;1.20;;;;;;;;;;5069872;28;20076;-60
2024/03/15 03:28:13;;;;;;;1.33;1.08;;;;;;;;;;5068187;28;20052;-61
2024/03/15 03:30:43;;;;;;;1.85;1.10;;;;;;;;;;5067404;28;20045;-61
2024/03/15 03:33:11;;;;;;;0.90;0.90;;;;;;;;;;5064834;28;20709;-61
2024/03/15 03:35:40;;;;;;;1.30;0.90;;;;;;;;;;5072752;28;20472;-60
2024/03/15 03:38:08;;;;;;;1.52;1.17;;;;;;;;;;5058459;28;20053;-60
2024/03/15 03:40:37;;;;;;;1.90;1.05;;;;;;;;;;5065994;28;20044;-60
2024/03/15 03:43:05;;;;;;;1.67;1.08;;;;;;;;;;5066663;28;20048;-60
2024/03/15 03:45:35;;;;;;;1.10;0.98;;;;;;;;;;5073265;28;20379;-60
2024/03/15 03:48:08;;;;;;;1.35;1.08;;;;;;;;;;5076388;28;20521;-60
2024/03/15 03:50:37;;;;;;;1.75;1.10;;;;;;;;;;5076489;28;20071;-60
2024/03/15 03:53:05;;;;;;;1.25;1.15;;;;;;;;;;5067393;28;20114;-60
2024/03/15 03:55:34;;;;;;;1.08;0.85;;;;;;;;;;5064252;28;20044;-62
2024/03/15 03:58:02;;;;;;;1.15;1.05;;;;;;;;;;5065093;28;20355;-63
2024/03/15 04:00:34;;;;;;;1.10;1.00;;;;;;;;;;5066768;28;20040;-60
2024/03/15 04:03:03;;;;;;;3.35;0.95;;;;;;;;;;5073436;28;20381;-62
2024/03/15 04:05:32;;;;;;;2.40;0.88;;;;;;;;;;5069042;28;21482;-61
2024/03/15 04:08:02;;;;;;;1.80;1.10;;;;;;;;;;5068902;28;20463;-61
2024/03/15 04:10:33;;;;;;;2.80;1.20;;;;;;;;;;5064668;28;20061;-60
2024/03/15 04:13:01;;;;;;;1.70;1.00;;;;;;;;;;5066477;28;20049;-61
2024/03/15 04:15:30;;;;;;;1.17;1.00;;;;;;;;;;5065739;28;20050;-61
2024/03/15 04:17:58;;;;;;;1.27;0.93;;;;;;;;;;5061645;28;20060;-61
2024/03/15 04:20:29;;;;;;;0.80;0.80;;;;;;;;;;5074816;28;20098;-61
2024/03/15 04:22:58;;;;;;;1.60;0.88;;;;;;;;;;5063008;28;20106;-60
2024/03/15 04:25:26;;;;;;;1.95;1.10;;;;;;;;;;5075345;28;20080;-60
2024/03/15 04:27:55;;;;;;;1.33;1.00;;;;;;;;;;5085004;28;20051;-60
2024/03/15 04:30:24;;;;;;;1.50;0.95;;;;;;;;;;5079560;28;20464;-60
2024/03/15 04:32:55;;;;;;;3.47;1.20;;;;;;;;;;5066595;28;20059;-61
2024/03/15 04:35:27;;;;;;;1.10;1.00;;;;;;;;;;5077225;28;20048;-60
2024/03/15 04:37:57;;;;;;;1.42;0.90;;;;;;;;;;5068631;28;20048;-60
2024/03/15 04:40:28;;;;;;;2.00;0.80;;;;;;;;;;5064806;28;20056;-60
2024/03/15 04:42:57;;;;;;;1.33;0.90;;;;;;;;;;5086263;28;20381;-61
2024/03/15 04:45:26;;;;;;;1.23;0.90;;;;;;;;;;5075886;28;20048;-61
2024/03/15 04:47:56;;;;;;;1.20;0.98;;;;;;;;;;5081446;28;20055;-61
2024/03/15 04:50:25;;;;;;;1.23;1.00;;;;;;;;;;5064195;28;20051;-60
2024/03/15 04:52:53;;;;;;;1.58;0.80;;;;;;;;;;5073790;28;20451;-61
2024/03/15 04:55:22;;;;;;;0.95;0.85;;;;;;;;;;5066648;28;20355;-61
2024/03/15 04:57:51;;;;;;;1.05;0.70;;;;;;;;;;5076405;28;20048;-62
2024/03/15 05:00:20;;;;;;;1.58;1.10;;;;;;;;;;5064497;28;20055;-59
2024/03/15 05:02:51;;;;;;;2.30;1.20;;;;;;;;;;5070033;28;20151;-60
2024/03/15 05:05:23;;;;;;;1.30;0.88;;;;;;;;;;5075805;28;20125;-60
2024/03/15 05:07:53;;;;;;;1.05;0.95;;;;;;;;;;5060730;28;20497;-62
2024/03/15 05:10:21;;;;;;;2.03;1.20;;;;;;;;;;5068036;28;20056;-60
2024/03/15 05:12:50;;;;;;;1.38;1.20;;;;;;;;;;5070581;28;20062;-61
2024/03/15 05:15:20;;;;;;;1.27;0.90;;;;;;;;;;5070956;28;20076;-60
2024/03/15 05:17:49;;;;;;;1.40;1.05;;;;;;;;;;5071321;28;20049;-61
2024/03/15 05:20:18;;;;;;;1.83;1.20;;;;;;;;;;5061775;28;20504;-61
2024/03/15 05:22:47;;;;;;;0.98;0.93;;;;;;;;;;5062430;28;20057;-60
2024/03/15 05:25:15;;;;;;;1.27;1.10;;;;;;;;;;5077890;28;20054;-62
2024/03/15 05:27:45;;;;;;;1.30;1.00;;;;;;;;;;5068151;28;20083;-63
2024/03/15 05:30:17;;;;;;;1.80;1.13;;;;;;;;;;5070218;28;20094;-62
2024/03/15 05:32:47;;;;;;;1.67;1.10;;;;;;;;;;5070822;28;20298;-62
2024/03/15 05:35:18;;;;;;;1.83;1.08;;;;;;;;;;5061481;28;20343;-61
2024/03/15 05:37:47;;;;;;;4.20;1.38;;;;;;;;;;5055526;28;20052;-61
2024/03/15 05:40:17;;;;;;;1.27;0.98;;;;;;;;;;5064014;28;20069;-60
2024/03/15 05:42:47;;;;;;;1.00;0.90;;;;;;;;;;5067818;28;20041;-61
2024/03/15 05:45:17;;;;;;;1.90;1.00;;;;;;;;;;5065200;28;20072;-60
2024/03/15 05:47:46;;;;;;;1.02;1.00;;;;;;;;;;5062599;28;20045;-61
2024/03/15 05:50:15;;;;;;;3.05;1.38;;;;;;;;;;5056701;28;20047;-61
2024/03/15 05:52:43;;;;;;;7.40;1.58;;;;;;;;;;5062582;28;20106;-62
2024/03/15 05:55:13;;;;;;;1.52;1.02;;;;;;;;;;5061558;28;20056;-62
2024/03/15 05:57:42;;;;;;;2.03;1.10;;;;;;;;;;5058696;28;20049;-65
2024/03/15 06:00:13;;;;;;;2.17;1.10;;;;;;;;;;5063934;28;20135;-60
2024/03/15 06:02:45;;;;;;;1.20;1.10;;;;;;;;;;5065730;28;20064;-60
2024/03/15 06:05:13;;;;;;;2.63;1.13;;;;;;;;;;5061823;28;20058;-64
2024/03/15 06:07:42;;;;;;;1.52;1.08;;;;;;;;;;5066790;28;20478;-61
2024/03/15 06:10:10;;;;;;;1.60;1.10;;;;;;;;;;5066551;28;20071;-62
2024/03/15 06:12:39;;;;;;;1.00;0.90;;;;;;;;;;5068437;28;20493;-60
2024/03/15 06:15:09;;;;;;;2.35;1.13;;;;;;;;;;5069854;28;20064;-60
2024/03/15 06:17:39;;;;;;;3.33;1.23;;;;;;;;;;5068446;28;20044;-60
2024/03/15 06:20:09;;;;;;;1.23;1.13;;;;;;;;;;5066404;28;20101;-61
2024/03/15 06:22:39;;;;;;;1.00;0.90;;;;;;;;;;5066289;28;20071;-60
2024/03/15 06:25:07;;;;;;;2.35;1.00;;;;;;;;;;5069091;28;20054;-60
2024/03/15 06:27:39;;;;;;;3.42;1.10;;;;;;;;;;5069877;28;20055;-61
2024/03/15 06:30:09;;;;;;;2.88;1.30;;;;;;;;;;5069325;28;20094;-62
2024/03/15 06:32:39;;;;;;;1.20;1.10;;;;;;;;;;5056036;28;20061;-63
2024/03/15 06:35:22;;;;;;;2.78;1.20;;;;;;;;;;5047314;28;20253;-62
2024/03/15 06:37:54;;;;;;;1.75;1.13;;;;;;;;;;5045116;28;20053;-60
2024/03/15 06:40:30;;;;;;;2.05;1.00;;;;;;;;;;5043201;28;20350;-61
2024/03/15 06:43:13;;;;;;;4.40;1.00;;;;;;;;;;5048283;28;20087;-62
2024/03/15 06:45:52;;;;;;;1.25;1.00;;;;;;;;;;5038352;28;20069;-60
2024/03/15 06:48:33;;;;;;;1.58;1.15;;;;;;;;;;5047920;28;20068;-62
2024/03/15 06:52:31;;;;;;;1.88;1.30;;;;;;;;;;5042624;28;20045;-62
2024/03/15 06:53:49;;;;;;;1.98;1.20;;;;;;;;;;5045599;28;20498;-62
2024/03/15 06:56:18;;;;;;;1.98;1.23;;;;;;;;;;5049106;28;20097;-61
2024/03/15 06:58:46;;;;;;;3.17;1.08;;;;;;;;;;5048082;28;20045;-61
2024/03/15 07:01:15;;;;;;;1.40;1.10;;;;;;;;;;5048294;28;20103;-60
2024/03/15 07:03:43;;;;;;;1.77;1.10;;;;;;;;;;5041943;28;20395;-61
2024/03/15 07:06:12;;;;;;;6.15;1.40;;;;;;;;;;5045933;28;20040;-62
2024/03/15 07:08:40;;;;;;;2.33;1.17;;;;;;;;;;5047011;28;20085;-62
2024/03/15 07:11:09;;;;;;;1.50;1.20;;;;;;;;;;5045942;28;20049;-61
2024/03/15 07:13:37;;;;;;;1.50;1.00;;;;;;;;;;5061328;28;20505;-62
2024/03/15 07:16:07;;;;;;;2.05;1.45;;;;;;;;;;5055622;28;20086;-60
2024/03/15 07:18:37;;;;;;;1.33;1.23;;;;;;;;;;5047960;28;20125;-61
2024/03/15 07:21:06;;;;;;;2.60;1.00;;;;;;;;;;5056362;28;20523;-62
2024/03/15 07:23:35;;;;;;;1.95;1.20;;;;;;;;;;5064257;28;20056;-61
2024/03/15 07:26:04;;;;;;;1.63;0.98;;;;;;;;;;5068289;28;20049;-61
2024/03/15 07:28:32;;;;;;;3.65;1.45;;;;;;;;;;5068164;28;20236;-62
2024/03/15 07:31:01;;;;;;;1.80;1.42;;;;;;;;;;5056068;28;20048;-61
2024/03/15 07:33:30;;;;;;;1.40;1.08;;;;;;;;;;5059654;28;20349;-61
2024/03/15 07:36:01;;;;;;;1.20;1.00;;;;;;;;;;5044238;28;20494;-61
2024/03/15 07:38:30;;;;;;;1.20;1.10;;;;;;;;;;5049211;28;20135;-61
2024/03/15 07:40:58;;;;;;;3.22;0.90;;;;;;;;;;5046991;28;20104;-62
2024/03/15 07:43:27;;;;;;;2.83;1.20;;;;;;;;;;5062811;28;20048;-62
2024/03/15 07:45:55;;;;;;;1.27;1.10;;;;;;;;;;5067979;28;20041;-61
2024/03/15 07:48:24;;;;;;;1.55;0.95;;;;;;;;;;5067273;28;20102;-63
2024/03/15 07:50:53;;;;;;;0.95;0.90;;;;;;;;;;5062096;28;20517;-62
2024/03/15 07:53:22;;;;;;;1.67;1.02;;;;;;;;;;5063444;28;20052;-61
2024/03/15 07:55:51;;;;;;;1.77;1.00;;;;;;;;;;5067368;28;20118;-62
2024/03/15 07:58:19;;;;;;;1.45;1.08;;;;;;;;;;5067050;28;20062;-62
2024/03/15 08:00:48;;;;;;;1.88;1.05;;;;;;;;;;5066533;28;20056;-60
2024/03/15 08:03:18;;;;;;;0.90;0.75;;;;;;;;;;5065492;28;20112;-61
2024/03/15 08:05:48;;;;;;;1.20;0.90;;;;;;;;;;5066484;28;20086;-62
2024/03/15 08:08:17;;;;;;;1.42;0.80;;;;;;;;;;5065112;28;20137;-62
2024/03/15 08:10:46;;;;;;;1.80;1.30;;;;;;;;;;5066727;28;20052;-62
2024/03/15 08:13:15;;;;;;;2.22;0.90;;;;;;;;;;5066787;28;20072;-63
2024/03/15 08:15:45;;;;;;;2.42;0.93;;;;;;;;;;5065850;28;20072;-64
2024/03/15 08:18:14;;;;;;;1.30;0.85;;;;;;;;;;5063020;28;20118;-64
2024/03/15 08:20:46;;;;;;;1.60;0.80;;;;;;;;;;5062867;28;20056;-65
2024/03/15 08:23:14;;;;;;;2.05;0.88;;;;;;;;;;5066272;28;20053;-64
2024/03/15 08:25:43;;;;;;;1.15;0.80;;;;;;;;;;5066768;28;20057;-63
2024/03/15 08:28:13;;;;;;;1.50;1.10;;;;;;;;;;5065845;28;20098;-64
2024/03/15 08:30:47;;;;;;;1.63;0.85;;;;;;;;;;5066340;28;20559;-63
2024/03/15 08:33:16;;;;;;;2.53;0.90;;;;;;;;;;5067453;28;20068;-62
2024/03/15 08:35:45;;;;;;;2.08;0.80;;;;;;;;;;5076192;28;20052;-62
2024/03/15 08:38:14;;;;;;;1.45;0.98;;;;;;;;;;5068091;28;20055;-63
2024/03/15 08:40:42;;;;;;;1.50;0.90;;;;;;;;;;5072458;28;20076;-63
2024/03/15 08:43:11;;;;;;;1.27;1.05;;;;;;;;;;5066217;28;20044;-64
2024/03/15 08:45:40;;;;;;;2.03;1.10;;;;;;;;;;5066452;28;20048;-65
2024/03/15 08:48:12;;;;;;;2.20;1.00;;;;;;;;;;5056699;28;20137;-62
2024/03/15 08:50:41;;;;;;;0.90;0.80;;;;;;;;;;5061586;28;20059;-62
2024/03/15 08:53:11;;;;;;;1.40;0.88;;;;;;;;;;5064703;28;20045;-63
2024/03/15 08:55:42;;;;;;;1.75;0.90;;;;;;;;;;5068013;28;20044;-62
2024/03/15 08:58:11;;;;;;;1.20;0.95;;;;;;;;;;5075319;28;20547;-60
2024/03/15 09:00:39;;;;;;;1.98;1.05;;;;;;;;;;5075541;28;20153;-59
2024/03/15 09:03:09;;;;;;;3.22;1.13;;;;;;;;;;5063571;28;20036;-59
2024/03/15 09:05:39;;;;;;;1.33;0.80;;;;;;;;;;5065017;28;20044;-64
2024/03/15 09:08:11;;;;;;;2.72;0.95;;;;;;;;;;5067163;28;20048;-65
2024/03/15 09:10:40;;;;;;;0.88;0.70;;;;;;;;;;5084570;28;20144;-65
2024/03/15 09:13:09;;;;;;;2.47;1.20;;;;;;;;;;5071725;28;20044;-64
2024/03/15 09:15:38;;;;;;;3.80;1.15;;;;;;;;;;5069210;28;20044;-62
2024/03/15 09:18:08;;;;;;;2.83;1.20;;;;;;;;;;5075775;28;20063;-64
2024/03/15 09:20:42;;;;;;;2.65;1.30;;;;;;;;;;5075873;28;20470;-63
2024/03/15 09:23:12;;;;;;;1.50;1.13;;;;;;;;;;5087373;28;20048;-61
2024/03/15 09:25:42;;;;;;;1.75;1.05;;;;;;;;;;5088343;28;20056;-63
2024/03/15 09:28:12;;;;;;;2.53;1.27;;;;;;;;;;5085918;28;20040;-61
2024/03/15 09:30:49;;;;;;;3.97;1.40;;;;;;;;;;5072262;28;20052;-61
2024/03/15 09:33:34;;;;;;;1.48;0.98;;;;;;;;;;5079782;28;20182;-64
2024/03/15 09:36:05;;;;;;;2.53;1.20;;;;;;;;;;5069675;28;20090;-61
2024/03/15 09:38:34;;;;;;;1.35;0.98;;;;;;;;;;5088678;28;20048;-62
2024/03/15 09:41:05;;;;;;;2.80;1.05;;;;;;;;;;5072521;28;20452;-62
2024/03/15 09:43:37;;;;;;;1.10;1.00;;;;;;;;;;5068349;28;20133;-63
2024/03/15 09:46:06;;;;;;;2.10;1.05;;;;;;;;;;5063748;28;20056;-62
2024/03/15 09:48:35;;;;;;;2.08;0.88;;;;;;;;;;5069949;28;20551;-60
2024/03/15 09:51:04;;;;;;;1.10;1.00;;;;;;;;;;5069020;28;20440;-63
2024/03/15 09:53:32;;;;;;;1.38;0.90;;;;;;;;;;5072249;28;20493;-62
2024/03/15 09:56:03;;;;;;;1.80;1.17;;;;;;;;;;5069058;28;20054;-61
2024/03/15 09:58:32;;;;;;;1.65;1.13;;;;;;;;;;5070407;28;20083;-62
2024/03/15 10:01:01;;;;;;;1.90;1.10;;;;;;;;;;5065073;28;20107;-62
2024/03/15 10:03:30;;;;;;;3.60;1.27;;;;;;;;;;5073608;28;20048;-62
2024/03/15 10:06:01;;;;;;;2.05;1.20;;;;;;;;;;5073109;28;20055;-60
2024/03/15 10:08:30;;;;;;;1.80;1.27;;;;;;;;;;5070264;28;20052;-61
2024/03/15 10:10:58;;;;;;;2.42;1.20;;;;;;;;;;5067106;28;20070;-61
2024/03/15 10:13:29;;;;;;;2.10;1.10;;;;;;;;;;5063624;28;20040;-60
2024/03/15 10:16:00;;;;;;;2.22;1.25;;;;;;;;;;5069823;28;20048;-62
2024/03/15 10:18:29;;;;;;;3.55;1.30;;;;;;;;;;5077815;28;20089;-60
2024/03/15 10:21:00;;;;;;;1.95;1.30;;;;;;;;;;5072682;28;20040;-62
2024/03/15 10:23:29;;;;;;;1.67;1.25;;;;;;;;;;5052644;28;20072;-60
2024/03/15 10:25:57;;;;;;;1.70;1.13;;;;;;;;;;5049421;28;20045;-61
2024/03/15 10:28:25;;;;;;;2.00;1.27;;;;;;;;;;5054740;28;20082;-62
2024/03/15 10:30:56;;;;;;;2.08;1.30;;;;;;;;;;5045418;28;20502;-63
2024/03/15 10:33:25;;;;;;;2.72;1.38;;;;;;;;;;5064876;28;20048;-61
2024/03/15 10:35:53;;;;;;;1.77;1.27;;;;;;;;;;5077260;28;20050;-60
2024/03/15 10:38:22;;;;;;;2.08;1.20;;;;;;;;;;5070037;28;20052;-62
2024/03/15 10:40:51;;;;;;;3.70;1.38;;;;;;;;;;5074832;28;20051;-63
2024/03/15 10:43:19;;;;;;;1.20;1.10;;;;;;;;;;5070234;28;20131;-65
2024/03/15 10:45:48;;;;;;;2.05;1.30;;;;;;;;;;5067972;28;20079;-62
2024/03/15 10:48:19;;;;;;;1.63;1.10;;;;;;;;;;5068960;28;20051;-62
2024/03/15 10:50:48;;;;;;;4.50;1.10;;;;;;;;;;5073347;28;20052;-63
2024/03/15 10:53:19;;;;;;;1.80;1.30;;;;;;;;;;5072969;28;20041;-64
2024/03/15 10:55:49;;;;;;;1.25;0.98;;;;;;;;;;5068940;28;20291;-63
2024/03/15 10:58:18;;;;;;;2.15;1.27;;;;;;;;;;5071526;28;20051;-61
2024/03/15 11:00:46;;;;;;;2.03;1.20;;;;;;;;;;5072867;28;20053;-63
2024/03/15 11:03:17;;;;;;;1.10;0.98;;;;;;;;;;5071028;28;20048;-62
2024/03/15 11:05:47;;;;;;;2.15;1.02;;;;;;;;;;5070345;28;20048;-65
2024/03/15 11:08:16;;;;;;;2.60;1.13;;;;;;;;;;5062493;28;20068;-63
2024/03/15 11:10:54;;;;;;;1.40;1.00;;;;;;;;;;5072902;28;20063;-66
2024/03/15 11:13:23;;;;;;;1.30;1.10;;;;;;;;;;5067222;28;20056;-63
2024/03/15 11:15:52;;;;;;;1.40;1.20;;;;;;;;;;5066969;28;20059;-66
2024/03/15 11:18:21;;;;;;;1.58;1.23;;;;;;;;;;5074078;28;20383;-63
2024/03/15 11:20:52;;;;;;;1.50;1.15;;;;;;;;;;5070622;28;20139;-63
2024/03/15 11:23:20;;;;;;;2.92;1.52;;;;;;;;;;5065461;28;20086;-63
2024/03/15 11:25:55;;;;;;;3.78;1.30;;;;;;;;;;5067186;28;20067;-64
2024/03/15 11:28:24;;;;;;;1.90;1.50;;;;;;;;;;5070413;28;20055;-65
2024/03/15 11:30:52;;;;;;;2.28;1.17;;;;;;;;;;5063237;28;20715;-64
2024/03/15 11:33:21;;;;;;;3.55;1.27;;;;;;;;;;5067771;28;20040;-65
2024/03/15 11:35:51;;;;;;;2.25;1.42;;;;;;;;;;5075004;28;20058;-64
2024/03/15 11:38:19;;;;;;;2.58;1.55;;;;;;;;;;5083525;28;20097;-64
2024/03/15 11:40:48;;;;;;;3.20;1.45;;;;;;;;;;5066767;28;20056;-62
2024/03/15 11:43:16;;;;;;;4.35;1.60;;;;;;;;;;5075055;28;20101;-64
2024/03/15 11:45:45;;;;;;;2.75;1.10;;;;;;;;;;5066966;28;20051;-62
2024/03/15 11:48:16;;;;;;;2.67;1.60;;;;;;;;;;5072743;28;20040;-62
2024/03/15 11:50:45;;;;;;;2.53;1.20;;;;;;;;;;5071928;28;20048;-63
2024/03/15 11:53:14;;;;;;;2.40;1.38;;;;;;;;;;5072390;28;20048;-63
2024/03/15 11:55:43;;;;;;;1.40;1.23;;;;;;;;;;5076850;28;20055;-65
2024/03/15 11:58:13;;;;;;;2.85;1.77;;;;;;;;;;5076112;28;20425;-62
2024/03/15 12:00:42;;;;;;;3.05;1.63;;;;;;;;;;5072758;28;20056;-61
2024/03/15 12:03:11;;;;;;;1.75;1.40;;;;;;;;;;5069307;28;20055;-63
2024/03/15 12:05:41;;;;;;;1.65;1.50;;;;;;;;;;5075089;28;20093;-62
2024/03/15 12:08:11;;;;;;;1.73;1.45;;;;;;;;;;5065925;28;20056;-64
2024/03/15 12:10:40;;;;;;;1.90;1.40;;;;;;;;;;5066328;28;20098;-64
2024/03/15 12:13:16;;;;;;;1.98;1.40;;;;;;;;;;5068097;28;20044;-62
2024/03/15 12:15:45;;;;;;;2.33;1.30;;;;;;;;;;5072030;28;20056;-63
2024/03/15 12:18:14;;;;;;;2.22;1.50;;;;;;;;;;5074190;28;20071;-64
2024/03/15 12:20:43;;;;;;;2.47;1.40;;;;;;;;;;5067569;28;20084;-62
2024/03/15 12:23:12;;;;;;;1.92;1.27;;;;;;;;;;5072145;28;20156;-63
2024/03/15 12:25:41;;;;;;;3.50;1.48;;;;;;;;;;5065750;28;20222;-63
2024/03/15 12:28:10;;;;;;;1.90;1.35;;;;;;;;;;5068344;28;20098;-62
2024/03/15 12:30:40;;;;;;;2.40;1.40;;;;;;;;;;5068880;28;20133;-64
2024/03/15 12:33:09;;;;;;;2.50;1.33;;;;;;;;;;5062545;28;20052;-64
2024/03/15 12:35:38;;;;;;;2.47;1.50;;;;;;;;;;5069613;28;20557;-63
2024/03/15 12:38:07;;;;;;;4.38;1.50;;;;;;;;;;5072671;28;20067;-62
2024/03/15 12:40:42;;;;;;;1.52;1.20;;;;;;;;;;5069749;28;20037;-63
2024/03/15 12:43:10;;;;;;;4.10;1.50;;;;;;;;;;5075884;28;20068;-62
2024/03/15 12:45:40;;;;;;;2.42;1.23;;;;;;;;;;5071263;28;20151;-62
2024/03/15 12:48:10;;;;;;;2.38;1.17;;;;;;;;;;5066139;28;20091;-63
2024/03/15 12:50:39;;;;;;;1.83;1.30;;;;;;;;;;5071299;28;20054;-62
2024/03/15 12:53:09;;;;;;;1.30;1.20;;;;;;;;;;5068332;28;20124;-62
2024/03/15 12:55:37;;;;;;;2.75;1.40;;;;;;;;;;5069429;28;20123;-66
2024/03/15 12:58:06;;;;;;;1.58;1.13;;;;;;;;;;5070013;28;20053;-63
2024/03/15 13:00:34;;;;;;;1.23;0.98;;;;;;;;;;5069833;28;20052;-63
2024/03/15 13:03:05;;;;;;;2.65;1.30;;;;;;;;;;5067096;28;20055;-63
2024/03/15 13:05:34;;;;;;;3.40;1.20;;;;;;;;;;5070189;28;20056;-64
2024/03/15 13:08:02;;;;;;;1.38;1.13;;;;;;;;;;5067799;28;20047;-63
2024/03/15 13:10:31;;;;;;;1.38;1.10;;;;;;;;;;5069192;28;20053;-63
2024/03/15 13:13:01;;;;;;;2.75;1.23;;;;;;;;;;5070131;28;20500;-61
2024/03/15 13:15:30;;;;;;;1.60;1.23;;;;;;;;;;5071408;28;20751;-65
2024/03/15 13:18:01;;;;;;;1.60;1.05;;;;;;;;;;5062119;28;20106;-61
2024/03/15 13:20:30;;;;;;;2.72;1.40;;;;;;;;;;5067539;28;20464;-66
2024/03/15 13:23:02;;;;;;;3.38;1.38;;;;;;;;;;5063012;28;20057;-63
2024/03/15 13:25:31;;;;;;;1.45;1.33;;;;;;;;;;5050114;28;20064;-62
2024/03/15 13:28:06;;;;;;;1.60;1.20;;;;;;;;;;5038279;28;20046;-61
2024/03/15 13:30:37;;;;;;;3.58;1.27;;;;;;;;;;5037850;28;20064;-64
2024/03/15 13:33:08;;;;;;;2.75;1.00;;;;;;;;;;5050893;28;20041;-64
2024/03/15 13:35:40;;;;;;;2.08;1.10;;;;;;;;;;5055062;28;20138;-62
2024/03/15 13:38:09;;;;;;;1.05;0.93;;;;;;;;;;5061782;28;20048;-63
2024/03/15 13:40:39;;;;;;;3.50;1.40;;;;;;;;;;5058517;28;20135;-62
2024/03/15 13:43:07;;;;;;;1.50;1.00;;;;;;;;;;5059295;28;20056;-62
2024/03/15 13:45:38;;;;;;;2.05;0.88;;;;;;;;;;5066195;28;20048;-61
2024/03/15 13:48:08;;;;;;;4.28;1.17;;;;;;;;;;5041554;28;20053;-62
2024/03/15 13:50:37;;;;;;;1.15;1.05;;;;;;;;;;5049310;28;20045;-63
2024/03/15 13:53:08;;;;;;;2.60;1.00;;;;;;;;;;5061327;28;21153;-62
2024/03/15 13:55:37;;;;;;;1.45;0.90;;;;;;;;;;5066096;28;20044;-62
2024/03/15 13:58:06;;;;;;;1.80;1.00;;;;;;;;;;5065495;28;20080;-63
2024/03/15 14:00:38;;;;;;;2.03;1.10;;;;;;;;;;5065194;28;20311;-62
2024/03/15 14:03:07;;;;;;;1.58;1.00;;;;;;;;;;5064540;28;20047;-61
2024/03/15 14:05:36;;;;;;;0.93;0.82;;;;;;;;;;5067729;28;20533;-62
2024/03/15 14:08:07;;;;;;;1.67;1.13;;;;;;;;;;5066902;28;20090;-62
2024/03/15 14:10:36;;;;;;;0.70;0.70;;;;;;;;;;5069096;28;20044;-62
2024/03/15 14:13:05;;;;;;;0.93;0.80;;;;;;;;;;5050279;28;20049;-63
2024/03/15 14:15:34;;;;;;;1.23;0.80;;;;;;;;;;5049077;28;20053;-61
2024/03/15 14:18:03;;;;;;;1.42;0.88;;;;;;;;;;5045700;28;20048;-62
2024/03/15 14:20:32;;;;;;;2.97;1.00;;;;;;;;;;5046243;28;20120;-64
2024/03/15 14:23:00;;;;;;;2.72;0.80;;;;;;;;;;5061132;28;20497;-63
2024/03/15 14:25:31;;;;;;;1.27;0.90;;;;;;;;;;5069374;28;20048;-61
2024/03/15 14:28:01;;;;;;;4.28;1.00;;;;;;;;;;5065567;28;20049;-66
2024/03/15 14:30:33;;;;;;;1.08;0.70;;;;;;;;;;5083537;28;20053;-61
2024/03/15 14:33:01;;;;;;;0.80;0.80;;;;;;;;;;5066405;28;20079;-63
2024/03/15 14:35:30;;;;;;;1.55;0.90;;;;;;;;;;5066617;28;20071;-66
2024/03/15 14:38:00;;;;;;;1.88;0.82;;;;;;;;;;5061056;28;20612;-64
2024/03/15 14:40:29;;;;;;;1.67;0.63;;;;;;;;;;5067491;28;20053;-63
2024/03/15 14:42:57;;;;;;;1.00;0.90;;;;;;;;;;5068228;28;20044;-63
2024/03/15 14:45:27;;;;;;;2.67;1.20;;;;;;;;;;5067811;28;20040;-64
2024/03/15 14:47:55;;;;;;;1.08;0.82;;;;;;;;;;5067463;28;20047;-63
2024/03/15 14:50:31;;;;;;;2.25;1.63;;;;;;;;;;5066307;28;20067;-62
2024/03/15 14:53:01;;;;;;;1.83;1.02;;;;;;;;;;5068979;28;20048;-62
2024/03/15 14:55:33;;;;;;;4.18;1.88;;;;;;;;;;5067330;28;20041;-63